createdAt,value
2024-02-18T00:00:01.824Z,35.81
2024-02-18T00:00:31.890Z,35.84
2024-02-18T00:01:01.985Z,35.74
2024-02-18T00:01:32.125Z,35.75
2024-02-18T00:02:02.139Z,35.78
2024-02-18T00:02:32.031Z,35.84
2024-02-18T00:03:02.140Z,35.80
2024-02-18T00:03:32.319Z,35.84
2024-02-18T00:04:02.461Z,35.81
2024-02-18T00:04:32.501Z,35.80
2024-02-18T00:05:02.710Z,35.83
2024-02-18T00:05:32.445Z,35.84
2024-02-18T00:06:02.622Z,35.80
2024-02-18T00:06:32.697Z,35.80
2024-02-18T00:07:02.697Z,35.84
2024-02-18T00:07:32.880Z,35.81
2024-02-18T00:08:02.732Z,35.80
2024-02-18T00:08:32.842Z,35.80
2024-02-18T00:09:02.983Z,35.81
2024-02-18T00:09:33.002Z,35.80
2024-02-18T00:10:03.254Z,35.80
2024-02-18T00:10:33.080Z,35.81
2024-02-18T00:11:03.213Z,35.77
2024-02-18T00:11:33.258Z,35.83
2024-02-18T00:12:03.254Z,35.81
2024-02-18T00:12:33.393Z,35.80
2024-02-18T00:13:03.431Z,35.80
2024-02-18T00:13:33.500Z,35.80
2024-02-18T00:14:03.549Z,35.81
2024-02-18T00:14:33.553Z,35.81
2024-02-18T00:15:03.680Z,35.80
2024-02-18T00:15:33.690Z,35.78
2024-02-18T00:16:03.748Z,35.84
2024-02-18T00:16:33.771Z,35.80
2024-02-18T00:17:03.880Z,35.83
2024-02-18T00:17:34.090Z,35.83
2024-02-18T00:18:04.137Z,35.84
2024-02-18T00:18:34.268Z,35.80
2024-02-18T00:19:04.294Z,35.83
2024-02-18T00:19:34.389Z,35.84
2024-02-18T00:20:04.363Z,35.80
2024-02-18T00:20:34.274Z,35.81
2024-02-18T00:21:04.383Z,35.81
2024-02-18T00:21:34.429Z,35.80
2024-02-18T00:22:04.533Z,35.81
2024-02-18T00:22:34.502Z,35.81
2024-02-18T00:23:04.636Z,35.85
2024-02-18T00:23:34.643Z,35.84
2024-02-18T00:24:04.759Z,35.84
2024-02-18T00:24:34.876Z,35.81
2024-02-18T00:25:05.019Z,35.77
2024-02-18T00:25:34.945Z,35.80
2024-02-18T00:26:05.063Z,35.82
2024-02-18T00:26:44.810Z,35.75
2024-02-18T00:27:05.077Z,35.80
2024-02-18T00:27:35.330Z,35.81
2024-02-18T00:28:05.452Z,35.82
2024-02-18T00:28:35.337Z,35.84
2024-02-18T00:29:05.326Z,35.78
2024-02-18T00:29:35.329Z,35.78
2024-02-18T00:30:05.322Z,35.79
2024-02-18T00:30:35.313Z,35.83
2024-02-18T00:31:05.359Z,35.81
2024-02-18T00:31:35.349Z,35.84
2024-02-18T00:32:05.484Z,35.83
2024-02-18T00:32:35.534Z,35.79
2024-02-18T00:33:05.633Z,35.80
2024-02-18T00:33:35.638Z,35.80
2024-02-18T00:34:05.746Z,35.82
2024-02-18T00:34:35.862Z,35.79
2024-02-18T00:35:05.779Z,35.82
2024-02-18T00:35:35.766Z,35.80
2024-02-18T00:36:05.769Z,35.78
2024-02-18T00:36:35.825Z,35.77
2024-02-18T00:37:05.889Z,35.77
2024-02-18T00:37:35.903Z,35.82
2024-02-18T00:38:05.894Z,35.74
2024-02-18T00:38:35.907Z,35.78
2024-02-18T00:39:05.889Z,35.75
2024-02-18T00:39:35.921Z,35.78
2024-02-18T00:40:05.953Z,35.78
2024-02-18T00:40:35.958Z,35.77
2024-02-18T00:41:05.955Z,35.72
2024-02-18T00:41:36.102Z,35.80
2024-02-18T00:42:06.099Z,35.78
2024-02-18T00:42:36.193Z,35.72
2024-02-18T00:43:06.201Z,35.75
2024-02-18T00:43:36.328Z,35.78
2024-02-18T00:44:06.401Z,35.77
2024-02-18T00:44:36.474Z,35.75
2024-02-18T00:45:06.575Z,35.77
2024-02-18T00:45:36.692Z,35.77
2024-02-18T00:46:15.757Z,35.77
2024-02-18T00:46:44.899Z,35.77
2024-02-18T00:47:06.990Z,35.77
2024-02-18T00:47:36.988Z,35.81
2024-02-18T00:48:07.154Z,35.75
2024-02-18T00:48:37.334Z,35.78
2024-02-18T00:49:07.420Z,35.80
2024-02-18T00:49:37.417Z,35.78
2024-02-18T00:50:07.395Z,35.82
2024-02-18T00:50:37.369Z,35.73
2024-02-18T00:51:07.464Z,35.80
2024-02-18T00:51:37.590Z,35.78
2024-02-18T00:52:07.597Z,35.78
2024-02-18T00:52:37.551Z,35.75
2024-02-18T00:53:07.647Z,35.74
2024-02-18T00:53:37.753Z,35.79
2024-02-18T00:54:07.870Z,35.78
2024-02-18T00:54:37.877Z,35.78
2024-02-18T00:55:07.953Z,35.80
2024-02-18T00:55:38.211Z,35.81
2024-02-18T00:56:08.098Z,35.78
2024-02-18T00:56:38.093Z,35.84
2024-02-18T00:57:08.209Z,35.78
2024-02-18T00:57:38.370Z,35.78
2024-02-18T00:58:08.385Z,35.79
2024-02-18T00:58:38.371Z,35.82
2024-02-18T00:59:08.511Z,35.81
2024-02-18T00:59:38.500Z,35.79
2024-02-18T01:00:08.498Z,35.81
2024-02-18T01:00:38.550Z,35.75
2024-02-18T01:01:08.626Z,35.78
2024-02-18T01:01:38.787Z,35.84
2024-02-18T01:02:08.719Z,35.84
2024-02-18T01:02:38.844Z,35.79
2024-02-18T01:03:08.851Z,35.79
2024-02-18T01:03:38.908Z,35.77
2024-02-18T01:04:09.042Z,35.78
2024-02-18T01:04:39.027Z,35.79
2024-02-18T01:05:09.162Z,35.82
2024-02-18T01:05:39.240Z,35.78
2024-02-18T01:06:09.308Z,35.84
2024-02-18T01:06:39.411Z,35.74
2024-02-18T01:07:09.529Z,35.79
2024-02-18T01:07:39.410Z,35.79
2024-02-18T01:08:09.534Z,35.77
2024-02-18T01:08:39.521Z,35.81
2024-02-18T01:09:09.536Z,35.78
2024-02-18T01:09:39.647Z,35.79
2024-02-18T01:10:09.616Z,35.75
2024-02-18T01:10:39.668Z,35.79
2024-02-18T01:11:09.751Z,35.79
2024-02-18T01:11:39.746Z,35.78
2024-02-18T01:12:09.861Z,35.77
2024-02-18T01:12:39.941Z,35.79
2024-02-18T01:13:09.944Z,35.81
2024-02-18T01:13:40.060Z,35.77
2024-02-18T01:14:10.067Z,35.78
2024-02-18T01:14:40.103Z,35.77
2024-02-18T01:15:10.078Z,35.73
2024-02-18T01:15:40.177Z,35.74
2024-02-18T01:16:10.205Z,35.82
2024-02-18T01:16:40.209Z,35.75
2024-02-18T01:17:10.208Z,35.72
2024-02-18T01:17:40.390Z,35.74
2024-02-18T01:18:10.438Z,35.78
2024-02-18T01:18:40.602Z,35.77
2024-02-18T01:19:10.678Z,35.78
2024-02-18T01:19:40.784Z,35.77
2024-02-18T01:20:10.719Z,35.75
2024-02-18T01:20:40.721Z,35.75
2024-02-18T01:21:10.831Z,35.74
2024-02-18T01:21:40.996Z,35.70
2024-02-18T01:22:11.070Z,35.72
2024-02-18T01:22:41.052Z,35.69
2024-02-18T01:23:11.173Z,35.77
2024-02-18T01:23:41.338Z,35.73
2024-02-18T01:24:11.335Z,35.74
2024-02-18T01:24:41.384Z,35.78
2024-02-18T01:25:11.457Z,35.75
2024-02-18T01:25:41.459Z,35.74
2024-02-18T01:26:11.570Z,35.71
2024-02-18T01:26:41.595Z,35.72
2024-02-18T01:27:11.687Z,35.71
2024-02-18T01:27:41.834Z,35.72
2024-02-18T01:28:11.811Z,35.74
2024-02-18T01:28:41.933Z,35.70
2024-02-18T01:29:11.937Z,35.77
2024-02-18T01:29:41.939Z,35.69
2024-02-18T01:30:12.069Z,35.69
2024-02-18T01:30:42.094Z,35.74
2024-02-18T01:31:12.119Z,35.72
2024-02-18T01:31:42.112Z,35.77
2024-02-18T01:32:12.242Z,35.69
2024-02-18T01:32:42.259Z,35.74
2024-02-18T01:33:12.473Z,35.68
2024-02-18T01:33:42.410Z,35.71
2024-02-18T01:34:12.522Z,35.73
2024-02-18T01:34:42.510Z,35.68
2024-02-18T01:35:12.735Z,35.75
2024-02-18T01:35:42.638Z,35.71
2024-02-18T01:36:12.742Z,35.72
2024-02-18T01:36:42.920Z,35.68
2024-02-18T01:37:12.947Z,35.73
2024-02-18T01:37:42.952Z,35.73
2024-02-18T01:38:12.945Z,35.71
2024-02-18T01:38:43.061Z,35.69
2024-02-18T01:39:13.053Z,35.65
2024-02-18T01:39:44.333Z,35.73
2024-02-18T01:40:13.276Z,35.75
2024-02-18T01:40:43.278Z,35.70
2024-02-18T01:41:13.367Z,35.68
2024-02-18T01:41:43.497Z,35.72
2024-02-18T01:42:13.605Z,35.72
2024-02-18T01:42:43.754Z,35.72
2024-02-18T01:43:13.709Z,35.70
2024-02-18T01:43:43.786Z,35.68
2024-02-18T01:44:13.873Z,35.72
2024-02-18T01:44:43.952Z,35.72
2024-02-18T01:45:14.037Z,35.71
2024-02-18T01:45:44.180Z,35.73
2024-02-18T01:46:14.291Z,35.72
2024-02-18T01:46:44.274Z,35.73
2024-02-18T01:47:14.367Z,35.69
2024-02-18T01:47:44.529Z,35.71
2024-02-18T01:48:14.685Z,35.66
2024-02-18T01:48:44.694Z,35.70
2024-02-18T01:49:14.732Z,35.71
2024-02-18T01:49:44.750Z,35.69
2024-02-18T01:50:14.921Z,35.78
2024-02-18T01:50:44.780Z,35.66
2024-02-18T01:51:14.750Z,35.69
2024-02-18T01:51:44.874Z,35.75
2024-02-18T01:52:14.852Z,35.72
2024-02-18T01:52:44.966Z,35.69
2024-02-18T01:53:14.960Z,35.73
2024-02-18T01:53:44.955Z,35.63
2024-02-18T01:54:14.956Z,35.70
2024-02-18T01:54:44.994Z,35.72
2024-02-18T01:55:14.976Z,35.70
2024-02-18T01:55:45.091Z,35.69
2024-02-18T01:56:15.202Z,35.72
2024-02-18T01:56:45.335Z,35.73
2024-02-18T01:57:15.324Z,35.66
2024-02-18T01:57:45.485Z,35.70
2024-02-18T01:58:15.479Z,35.70
2024-02-18T01:58:45.474Z,35.70
2024-02-18T01:59:15.597Z,35.68
2024-02-18T01:59:45.604Z,35.66
2024-02-18T02:00:15.718Z,35.68
2024-02-18T02:00:45.995Z,35.68
2024-02-18T02:01:16.111Z,35.69
2024-02-18T02:01:45.923Z,35.65
2024-02-18T02:02:15.923Z,35.69
2024-02-18T02:02:45.934Z,35.68
2024-02-18T02:03:15.908Z,35.70
2024-02-18T02:03:46.087Z,35.69
2024-02-18T02:04:16.181Z,35.63
2024-02-18T02:04:46.329Z,35.66
2024-02-18T02:05:16.279Z,35.68
2024-02-18T02:05:46.283Z,35.70
2024-02-18T02:06:16.408Z,35.69
2024-02-18T02:06:46.337Z,35.65
2024-02-18T02:07:16.350Z,35.68
2024-02-18T02:07:46.379Z,35.66
2024-02-18T02:08:16.365Z,35.68
2024-02-18T02:08:46.486Z,35.66
2024-02-18T02:09:16.599Z,35.65
2024-02-18T02:09:46.795Z,35.66
2024-02-18T02:10:16.806Z,35.63
2024-02-18T02:10:46.856Z,35.66
2024-02-18T02:11:16.901Z,35.66
2024-02-18T02:11:46.870Z,35.68
2024-02-18T02:12:16.988Z,35.66
2024-02-18T02:12:47.139Z,35.68
2024-02-18T02:13:17.166Z,35.62
2024-02-18T02:13:47.153Z,35.70
2024-02-18T02:14:17.149Z,35.69
2024-02-18T02:14:47.150Z,35.63
2024-02-18T02:15:17.169Z,35.68
2024-02-18T02:15:47.173Z,35.69
2024-02-18T02:16:17.223Z,35.66
2024-02-18T02:16:47.218Z,35.65
2024-02-18T02:17:17.191Z,35.65
2024-02-18T02:17:47.226Z,35.63
2024-02-18T02:18:17.282Z,35.68
2024-02-18T02:18:47.355Z,35.63
2024-02-18T02:19:17.635Z,35.59
2024-02-18T02:19:47.490Z,35.62
2024-02-18T02:20:17.406Z,35.63
2024-02-18T02:20:47.382Z,35.69
2024-02-18T02:21:17.379Z,35.62
2024-02-18T02:21:47.511Z,35.66
2024-02-18T02:22:17.565Z,35.65
2024-02-18T02:22:47.675Z,35.63
2024-02-18T02:23:17.709Z,35.57
2024-02-18T02:23:47.726Z,35.62
2024-02-18T02:24:17.697Z,35.65
2024-02-18T02:24:47.870Z,35.63
2024-02-18T02:25:17.869Z,35.62
2024-02-18T02:25:47.975Z,35.59
2024-02-18T02:26:18.093Z,35.63
2024-02-18T02:26:48.206Z,35.63
2024-02-18T02:27:18.224Z,35.62
2024-02-18T02:27:48.280Z,35.66
2024-02-18T02:28:18.255Z,35.62
2024-02-18T02:28:48.264Z,35.59
2024-02-18T02:29:18.242Z,35.60
2024-02-18T02:29:48.239Z,35.56
2024-02-18T02:30:18.247Z,35.62
2024-02-18T02:30:48.372Z,35.60
2024-02-18T02:31:18.358Z,35.60
2024-02-18T02:31:48.464Z,35.55
2024-02-18T02:32:18.488Z,35.57
2024-02-18T02:32:48.528Z,35.62
2024-02-18T02:33:18.622Z,35.57
2024-02-18T02:33:48.659Z,35.59
2024-02-18T02:34:18.821Z,35.57
2024-02-18T02:34:48.806Z,35.56
2024-02-18T02:35:19.000Z,35.61
2024-02-18T02:35:48.810Z,35.59
2024-02-18T02:36:19.069Z,35.59
2024-02-18T02:36:48.924Z,35.59
2024-02-18T02:37:18.940Z,35.55
2024-02-18T02:37:49.046Z,35.57
2024-02-18T02:38:19.055Z,35.60
2024-02-18T02:38:49.192Z,35.56
2024-02-18T02:39:19.333Z,35.56
2024-02-18T02:39:49.301Z,35.56
2024-02-18T02:40:19.296Z,35.60
2024-02-18T02:40:49.312Z,35.56
2024-02-18T02:41:19.329Z,35.57
2024-02-18T02:41:49.467Z,35.60
2024-02-18T02:42:19.540Z,35.57
2024-02-18T02:42:49.614Z,35.57
2024-02-18T02:43:19.609Z,35.56
2024-02-18T02:43:49.691Z,35.59
2024-02-18T02:44:19.784Z,35.60
2024-02-18T02:44:49.854Z,35.57
2024-02-18T02:45:20.034Z,35.57
2024-02-18T02:45:50.065Z,35.60
2024-02-18T02:46:20.138Z,35.53
2024-02-18T02:46:50.221Z,35.60
2024-02-18T02:47:20.481Z,35.53
2024-02-18T02:47:50.481Z,35.60
2024-02-18T02:48:20.536Z,35.56
2024-02-18T02:48:50.630Z,35.53
2024-02-18T02:49:20.703Z,35.57
2024-02-18T02:49:50.808Z,35.55
2024-02-18T02:50:20.794Z,35.59
2024-02-18T02:50:50.874Z,35.55
2024-02-18T02:51:21.002Z,35.53
2024-02-18T02:51:51.018Z,35.50
2024-02-18T02:52:21.043Z,35.51
2024-02-18T02:52:51.148Z,35.51
2024-02-18T02:53:21.225Z,35.55
2024-02-18T02:53:51.344Z,35.53
2024-02-18T02:54:21.498Z,35.51
2024-02-18T02:54:51.469Z,35.53
2024-02-18T02:55:21.521Z,35.61
2024-02-18T02:55:51.623Z,35.55
2024-02-18T02:56:21.734Z,35.54
2024-02-18T02:56:51.865Z,35.53
2024-02-18T02:57:21.924Z,35.57
2024-02-18T02:57:51.960Z,35.55
2024-02-18T02:58:21.955Z,35.56
2024-02-18T02:58:52.126Z,35.56
2024-02-18T02:59:22.151Z,35.59
2024-02-18T02:59:52.151Z,35.55
2024-02-18T03:00:22.357Z,35.56
2024-02-18T03:00:52.514Z,35.56
2024-02-18T03:01:22.612Z,35.54
2024-02-18T03:01:52.648Z,35.56
2024-02-18T03:02:22.642Z,35.57
2024-02-18T03:02:52.782Z,35.53
2024-02-18T03:03:22.891Z,35.51
2024-02-18T03:03:52.916Z,35.53
2024-02-18T03:04:23.000Z,35.56
2024-02-18T03:04:53.043Z,35.54
2024-02-18T03:05:23.059Z,35.56
2024-02-18T03:05:53.116Z,35.61
2024-02-18T03:06:23.246Z,35.53
2024-02-18T03:06:53.253Z,35.51
2024-02-18T03:07:23.280Z,35.55
2024-02-18T03:07:53.283Z,35.54
2024-02-18T03:08:23.392Z,35.58
2024-02-18T03:08:53.511Z,35.60
2024-02-18T03:09:23.649Z,35.58
2024-02-18T03:09:53.629Z,35.54
2024-02-18T03:10:23.633Z,35.58
2024-02-18T03:10:53.644Z,35.60
2024-02-18T03:11:23.644Z,35.58
2024-02-18T03:11:53.666Z,35.62
2024-02-18T03:12:23.685Z,35.64
2024-02-18T03:12:53.765Z,35.62
2024-02-18T03:13:23.795Z,35.61
2024-02-18T03:13:53.796Z,35.60
2024-02-18T03:14:23.909Z,35.60
2024-02-18T03:14:54.043Z,35.62
2024-02-18T03:15:24.087Z,35.67
2024-02-18T03:15:54.150Z,35.62
2024-02-18T03:16:24.157Z,35.64
2024-02-18T03:16:54.171Z,35.66
2024-02-18T03:17:24.167Z,35.67
2024-02-18T03:17:54.365Z,35.65
2024-02-18T03:18:24.496Z,35.66
2024-02-18T03:18:54.670Z,35.67
2024-02-18T03:19:24.581Z,35.65
2024-02-18T03:19:54.777Z,35.64
2024-02-18T03:20:24.577Z,35.67
2024-02-18T03:20:54.580Z,35.64
2024-02-18T03:21:24.614Z,35.71
2024-02-18T03:21:54.656Z,35.67
2024-02-18T03:22:25.113Z,35.67
2024-02-18T03:22:54.704Z,35.62
2024-02-18T03:23:24.822Z,35.68
2024-02-18T03:23:54.938Z,35.68
2024-02-18T03:24:24.951Z,35.73
2024-02-18T03:24:55.024Z,35.65
2024-02-18T03:25:25.081Z,35.67
2024-02-18T03:25:55.072Z,35.69
2024-02-18T03:26:25.191Z,35.69
2024-02-18T03:26:55.185Z,35.67
2024-02-18T03:27:25.359Z,35.68
2024-02-18T03:27:55.357Z,35.71
2024-02-18T03:28:25.354Z,35.68
2024-02-18T03:28:55.500Z,35.68
2024-02-18T03:29:25.513Z,35.65
2024-02-18T03:29:55.506Z,35.70
2024-02-18T03:30:25.526Z,35.62
2024-02-18T03:30:55.546Z,35.68
2024-02-18T03:31:25.529Z,35.65
2024-02-18T03:31:55.512Z,35.61
2024-02-18T03:32:25.664Z,35.62
2024-02-18T03:32:55.717Z,35.60
2024-02-18T03:33:25.874Z,35.57
2024-02-18T03:33:55.852Z,35.61
2024-02-18T03:34:25.878Z,35.66
2024-02-18T03:34:55.961Z,35.64
2024-02-18T03:35:25.888Z,35.58
2024-02-18T03:35:55.990Z,35.55
2024-02-18T03:36:26.186Z,35.55
2024-02-18T03:36:56.229Z,35.61
2024-02-18T03:37:26.266Z,35.61
2024-02-18T03:37:56.240Z,35.55
2024-02-18T03:38:26.388Z,35.54
2024-02-18T03:38:56.429Z,35.55
2024-02-18T03:39:26.474Z,35.55
2024-02-18T03:39:56.490Z,35.54
2024-02-18T03:40:26.486Z,35.52
2024-02-18T03:40:56.482Z,35.54
2024-02-18T03:41:26.475Z,35.57
2024-02-18T03:41:56.478Z,35.51
2024-02-18T03:42:26.608Z,35.55
2024-02-18T03:42:56.689Z,35.54
2024-02-18T03:43:26.636Z,35.54
2024-02-18T03:43:56.729Z,35.54
2024-02-18T03:44:26.830Z,35.52
2024-02-18T03:44:56.911Z,35.51
2024-02-18T03:45:27.015Z,35.48
2024-02-18T03:45:57.063Z,35.51
2024-02-18T03:46:27.052Z,35.50
2024-02-18T03:46:57.125Z,35.54
2024-02-18T03:47:27.213Z,35.48
2024-02-18T03:47:57.378Z,35.46
2024-02-18T03:48:27.462Z,35.52
2024-02-18T03:48:57.415Z,35.48
2024-02-18T03:49:27.494Z,35.49
2024-02-18T03:49:57.733Z,35.49
2024-02-18T03:50:27.497Z,35.49
2024-02-18T03:50:57.597Z,35.48
2024-02-18T03:51:27.706Z,35.48
2024-02-18T03:51:57.928Z,35.48
2024-02-18T03:52:27.769Z,35.51
2024-02-18T03:52:57.905Z,35.46
2024-02-18T03:53:27.895Z,35.44
2024-02-18T03:53:58.021Z,35.49
2024-02-18T03:54:28.110Z,35.48
2024-02-18T03:54:58.213Z,35.51
2024-02-18T03:55:28.197Z,35.50
2024-02-18T03:55:58.186Z,35.53
2024-02-18T03:56:28.292Z,35.49
2024-02-18T03:56:58.409Z,35.50
2024-02-18T03:57:28.573Z,35.45
2024-02-18T03:57:58.630Z,35.49
2024-02-18T03:58:28.709Z,35.47
2024-02-18T03:58:58.835Z,35.47
2024-02-18T03:59:28.760Z,35.47
2024-02-18T03:59:58.779Z,35.45
2024-02-18T04:00:28.904Z,35.47
2024-02-18T04:00:59.034Z,35.47
2024-02-18T04:01:29.115Z,35.45
2024-02-18T04:01:59.121Z,35.47
2024-02-18T04:02:29.136Z,35.47
2024-02-18T04:02:59.138Z,35.48
2024-02-18T04:03:29.294Z,35.46
2024-02-18T04:03:59.352Z,35.48
2024-02-18T04:04:29.705Z,35.45
2024-02-18T04:04:59.468Z,35.48
2024-02-18T04:05:29.555Z,35.45
2024-02-18T04:05:59.508Z,35.47
2024-02-18T04:06:29.666Z,35.45
2024-02-18T04:06:59.589Z,35.42
2024-02-18T04:07:29.661Z,35.47
2024-02-18T04:07:59.592Z,35.41
2024-02-18T04:08:29.706Z,35.45
2024-02-18T04:08:59.703Z,35.45
2024-02-18T04:09:29.838Z,35.45
2024-02-18T04:09:59.919Z,35.42
2024-02-18T04:10:29.908Z,35.45
2024-02-18T04:10:59.910Z,35.41
2024-02-18T04:11:30.081Z,35.48
2024-02-18T04:12:00.134Z,35.41
2024-02-18T04:12:30.222Z,35.42
2024-02-18T04:13:00.301Z,35.42
2024-02-18T04:13:30.216Z,35.45
2024-02-18T04:14:00.330Z,35.47
2024-02-18T04:14:30.446Z,35.42
2024-02-18T04:15:00.566Z,35.47
2024-02-18T04:15:30.640Z,35.48
2024-02-18T04:16:00.771Z,35.42
2024-02-18T04:16:30.763Z,35.42
2024-02-18T04:17:00.767Z,35.41
2024-02-18T04:17:30.850Z,35.41
2024-02-18T04:18:00.870Z,35.41
2024-02-18T04:18:30.938Z,35.45
2024-02-18T04:19:01.035Z,35.41
2024-02-18T04:19:31.089Z,35.45
2024-02-18T04:20:01.214Z,35.45
2024-02-18T04:20:31.156Z,35.39
2024-02-18T04:21:01.164Z,35.41
2024-02-18T04:21:31.364Z,35.41
2024-02-18T04:22:01.385Z,35.42
2024-02-18T04:22:31.361Z,35.43
2024-02-18T04:23:01.354Z,35.38
2024-02-18T04:23:31.471Z,35.40
2024-02-18T04:24:01.598Z,35.44
2024-02-18T04:24:31.613Z,35.44
2024-02-18T04:25:01.838Z,35.41
2024-02-18T04:25:31.710Z,35.41
2024-02-18T04:26:01.710Z,35.35
2024-02-18T04:26:31.826Z,35.41
2024-02-18T04:27:01.958Z,35.41
2024-02-18T04:27:32.103Z,35.45
2024-02-18T04:28:02.189Z,35.38
2024-02-18T04:28:32.143Z,35.38
2024-02-18T04:29:02.255Z,35.42
2024-02-18T04:29:32.374Z,35.41
2024-02-18T04:30:02.491Z,35.39
2024-02-18T04:30:32.558Z,35.38
2024-02-18T04:31:02.629Z,35.41
2024-02-18T04:31:32.688Z,35.36
2024-02-18T04:32:02.661Z,35.42
2024-02-18T04:32:32.735Z,35.42
2024-02-18T04:33:02.815Z,35.35
2024-02-18T04:33:33.001Z,35.38
2024-02-18T04:34:03.170Z,35.42
2024-02-18T04:34:33.143Z,35.41
2024-02-18T04:35:03.275Z,35.42
2024-02-18T04:35:33.097Z,35.44
2024-02-18T04:36:03.207Z,35.42
2024-02-18T04:36:33.343Z,35.40
2024-02-18T04:37:03.364Z,35.39
2024-02-18T04:37:33.360Z,35.39
2024-02-18T04:38:03.494Z,35.44
2024-02-18T04:38:33.472Z,35.39
2024-02-18T04:39:03.604Z,35.39
2024-02-18T04:39:33.655Z,35.40
2024-02-18T04:40:03.796Z,35.41
2024-02-18T04:40:33.700Z,35.39
2024-02-18T04:41:03.814Z,35.40
2024-02-18T04:41:33.934Z,35.38
2024-02-18T04:42:04.019Z,35.38
2024-02-18T04:42:34.080Z,35.40
2024-02-18T04:43:04.124Z,35.42
2024-02-18T04:43:34.081Z,35.42
2024-02-18T04:44:04.152Z,35.38
2024-02-18T04:44:34.239Z,35.36
2024-02-18T04:45:04.315Z,35.40
2024-02-18T04:45:34.465Z,35.39
2024-02-18T04:46:04.705Z,35.39
2024-02-18T04:46:34.473Z,35.42
2024-02-18T04:47:04.544Z,35.39
2024-02-18T04:47:34.669Z,35.43
2024-02-18T04:48:04.785Z,35.42
2024-02-18T04:48:34.954Z,35.39
2024-02-18T04:49:04.996Z,35.39
2024-02-18T04:49:34.911Z,35.42
2024-02-18T04:50:05.049Z,35.40
2024-02-18T04:50:34.920Z,35.39
2024-02-18T04:51:04.999Z,35.40
2024-02-18T04:51:35.115Z,35.40
2024-02-18T04:52:05.201Z,35.40
2024-02-18T04:52:35.184Z,35.37
2024-02-18T04:53:05.298Z,35.43
2024-02-18T04:53:35.298Z,35.37
2024-02-18T04:54:05.289Z,35.43
2024-02-18T04:54:38.626Z,35.35
2024-02-18T04:55:05.489Z,35.40
2024-02-18T04:55:35.496Z,35.40
2024-02-18T04:56:05.487Z,35.44
2024-02-18T04:56:35.600Z,35.39
2024-02-18T04:57:05.583Z,35.46
2024-02-18T04:57:35.718Z,35.42
2024-02-18T04:58:05.876Z,35.42
2024-02-18T04:58:35.802Z,35.39
2024-02-18T04:59:05.798Z,35.39
2024-02-18T04:59:35.801Z,35.43
2024-02-18T05:00:05.807Z,35.41
2024-02-18T05:00:36.006Z,35.40
2024-02-18T05:01:05.979Z,35.40
2024-02-18T05:01:36.069Z,35.39
2024-02-18T05:02:06.015Z,35.39
2024-02-18T05:02:36.187Z,35.40
2024-02-18T05:03:06.173Z,35.39
2024-02-18T05:03:36.288Z,35.40
2024-02-18T05:04:06.357Z,35.44
2024-02-18T05:04:36.395Z,35.39
2024-02-18T05:05:06.614Z,35.42
2024-02-18T05:05:36.656Z,35.39
2024-02-18T05:06:06.686Z,35.40
2024-02-18T05:06:36.724Z,35.40
2024-02-18T05:07:06.860Z,35.39
2024-02-18T05:07:36.883Z,35.39
2024-02-18T05:08:06.873Z,35.37
2024-02-18T05:08:36.888Z,35.37
2024-02-18T05:09:06.912Z,35.39
2024-02-18T05:09:36.905Z,35.36
2024-02-18T05:10:06.904Z,35.38
2024-02-18T05:10:36.878Z,35.31
2024-02-18T05:11:06.943Z,35.34
2024-02-18T05:11:37.024Z,35.36
2024-02-18T05:12:07.034Z,35.39
2024-02-18T05:12:37.056Z,35.35
2024-02-18T05:13:07.298Z,35.34
2024-02-18T05:13:37.094Z,35.39
2024-02-18T05:14:07.215Z,35.31
2024-02-18T05:14:37.341Z,35.34
2024-02-18T05:15:07.443Z,35.36
2024-02-18T05:15:37.584Z,35.36
2024-02-18T05:16:07.669Z,35.31
2024-02-18T05:16:37.703Z,35.32
2024-02-18T05:17:07.700Z,35.37
2024-02-18T05:17:37.923Z,35.33
2024-02-18T05:18:08.126Z,35.39
2024-02-18T05:18:38.087Z,35.35
2024-02-18T05:19:08.074Z,35.33
2024-02-18T05:19:38.386Z,35.33
2024-02-18T05:20:08.123Z,35.36
2024-02-18T05:20:38.373Z,35.33
2024-02-18T05:21:08.357Z,35.37
2024-02-18T05:21:38.511Z,35.33
2024-02-18T05:22:08.630Z,35.38
2024-02-18T05:22:38.493Z,35.29
2024-02-18T05:23:08.602Z,35.40
2024-02-18T05:23:38.575Z,35.33
2024-02-18T05:24:08.682Z,35.40
2024-02-18T05:24:38.864Z,35.39
2024-02-18T05:25:08.993Z,35.36
2024-02-18T05:25:38.891Z,35.36
2024-02-18T05:26:08.902Z,35.37
2024-02-18T05:26:38.906Z,35.37
2024-02-18T05:27:08.902Z,35.37
2024-02-18T05:27:39.036Z,35.44
2024-02-18T05:28:09.002Z,35.36
2024-02-18T05:28:39.051Z,35.40
2024-02-18T05:29:09.156Z,35.40
2024-02-18T05:29:39.150Z,35.39
2024-02-18T05:30:09.283Z,35.39
2024-02-18T05:30:39.312Z,35.42
2024-02-18T05:31:09.350Z,35.41
2024-02-18T05:31:39.337Z,35.36
2024-02-18T05:32:09.336Z,35.40
2024-02-18T05:32:39.506Z,35.41
2024-02-18T05:33:09.691Z,35.37
2024-02-18T05:33:39.724Z,35.39
2024-02-18T05:34:10.196Z,35.36
2024-02-18T05:34:39.968Z,35.34
2024-02-18T05:35:12.041Z,35.37
2024-02-18T05:35:39.931Z,35.39
2024-02-18T05:36:09.917Z,35.35
2024-02-18T05:36:39.956Z,35.37
2024-02-18T05:37:09.957Z,35.39
2024-02-18T05:37:39.955Z,35.40
2024-02-18T05:38:10.071Z,35.40
2024-02-18T05:38:40.174Z,35.40
2024-02-18T05:39:10.281Z,35.39
2024-02-18T05:39:40.317Z,35.37
2024-02-18T05:40:10.410Z,35.37
2024-02-18T05:40:40.336Z,35.36
2024-02-18T05:41:10.357Z,35.36
2024-02-18T05:41:40.455Z,35.40
2024-02-18T05:42:10.581Z,35.33
2024-02-18T05:42:40.615Z,35.37
2024-02-18T05:43:10.684Z,35.33
2024-02-18T05:43:40.703Z,35.36
2024-02-18T05:44:10.717Z,35.37
2024-02-18T05:44:40.841Z,35.30
2024-02-18T05:45:10.858Z,35.30
2024-02-18T05:45:40.897Z,35.36
2024-02-18T05:46:10.966Z,35.31
2024-02-18T05:46:40.912Z,35.31
2024-02-18T05:47:11.018Z,35.29
2024-02-18T05:47:41.153Z,35.33
2024-02-18T05:48:11.355Z,35.27
2024-02-18T05:48:41.512Z,35.30
2024-02-18T05:49:11.439Z,35.29
2024-02-18T05:49:44.288Z,35.29
2024-02-18T05:50:11.602Z,35.33
2024-02-18T05:50:41.613Z,35.33
2024-02-18T05:51:11.632Z,35.30
2024-02-18T05:51:41.848Z,35.30
2024-02-18T05:52:12.210Z,35.28
2024-02-18T05:52:41.919Z,35.33
2024-02-18T05:53:11.940Z,35.30
2024-02-18T05:53:41.985Z,35.26
2024-02-18T05:54:12.047Z,35.29
2024-02-18T05:54:42.140Z,35.27
2024-02-18T05:55:12.222Z,35.29
2024-02-18T05:55:42.280Z,35.30
2024-02-18T05:56:12.320Z,35.26
2024-02-18T05:56:42.351Z,35.28
2024-02-18T05:57:12.408Z,35.24
2024-02-18T05:57:42.450Z,35.29
2024-02-18T05:58:12.631Z,35.26
2024-02-18T05:58:42.553Z,35.29
2024-02-18T05:59:12.579Z,35.23
2024-02-18T05:59:42.599Z,35.23
2024-02-18T06:00:12.625Z,35.24
2024-02-18T06:00:42.770Z,35.20
2024-02-18T06:01:12.791Z,35.22
2024-02-18T06:01:42.851Z,35.27
2024-02-18T06:02:12.838Z,35.23
2024-02-18T06:02:42.868Z,35.29
2024-02-18T06:03:12.910Z,35.24
2024-02-18T06:03:42.992Z,35.24
2024-02-18T06:04:13.012Z,35.24
2024-02-18T06:04:43.059Z,35.21
2024-02-18T06:05:13.132Z,35.20
2024-02-18T06:05:43.184Z,35.17
2024-02-18T06:06:13.233Z,35.24
2024-02-18T06:06:43.397Z,35.23
2024-02-18T06:07:13.428Z,35.21
2024-02-18T06:07:43.515Z,35.24
2024-02-18T06:08:13.502Z,35.23
2024-02-18T06:08:43.535Z,35.21
2024-02-18T06:09:13.574Z,35.24
2024-02-18T06:09:43.687Z,35.22
2024-02-18T06:10:13.820Z,35.18
2024-02-18T06:10:43.939Z,35.24
2024-02-18T06:11:15.357Z,35.21
2024-02-18T06:11:43.893Z,35.20
2024-02-18T06:12:13.934Z,35.20
2024-02-18T06:12:44.004Z,35.17
2024-02-18T06:13:14.096Z,35.19
2024-02-18T06:13:44.065Z,35.23
2024-02-18T06:14:14.101Z,35.22
2024-02-18T06:14:44.122Z,35.17
2024-02-18T06:15:14.161Z,35.21
2024-02-18T06:15:44.227Z,35.20
2024-02-18T06:16:14.351Z,35.22
2024-02-18T06:16:44.324Z,35.27
2024-02-18T06:17:14.368Z,35.24
2024-02-18T06:17:44.468Z,35.25
2024-02-18T06:18:14.604Z,35.21
2024-02-18T06:18:44.699Z,35.21
2024-02-18T06:19:17.279Z,35.20
2024-02-18T06:19:44.769Z,35.23
2024-02-18T06:20:14.689Z,35.22
2024-02-18T06:20:44.715Z,35.27
2024-02-18T06:21:14.751Z,35.26
2024-02-18T06:21:44.833Z,35.18
2024-02-18T06:22:14.965Z,35.23
2024-02-18T06:22:45.043Z,35.21
2024-02-18T06:23:14.967Z,35.22
2024-02-18T06:23:44.992Z,35.20
2024-02-18T06:24:15.017Z,35.21
2024-02-18T06:24:45.054Z,35.20
2024-02-18T06:25:15.153Z,35.24
2024-02-18T06:25:45.106Z,35.24
2024-02-18T06:26:15.132Z,35.24
2024-02-18T06:26:45.191Z,35.20